Time;durP1;ratioP1;P1;durP2;ratioP2;P2;SDS_P1;SDS_P2;PMS_P1;PMS_P2;Temp;Humidity;BMP_temperature;BMP_pressure;BME280_temperature;BME280_humidity;BME280_pressure;Samples;Min_cycle;Max_cycle;Signal;HPM_P1;HPM_P2
2022/05/19 00:02:10;;;;;;;51.55;32.28;;;;;;;;;;5034990;28;20185;-69
2022/05/19 00:04:36;;;;;;;53.28;31.77;;;;;;;;;;5038060;28;20193;-69
2022/05/19 00:07:02;;;;;;;45.05;30.55;;;;;;;;;;5033145;28;20178;-69
2022/05/19 00:09:27;;;;;;;46.88;31.90;;;;;;;;;;5026056;28;20186;-69
2022/05/19 00:11:55;;;;;;;53.00;33.75;;;;;;;;;;5040534;28;20217;-69
2022/05/19 00:14:21;;;;;;;50.15;32.78;;;;;;;;;;5038396;28;20216;-69
2022/05/19 00:16:47;;;;;;;53.55;34.35;;;;;;;;;;5039442;28;20181;-71
2022/05/19 00:19:14;;;;;;;51.55;35.33;;;;;;;;;;5049620;28;20173;-69
2022/05/19 00:21:39;;;;;;;55.65;36.20;;;;;;;;;;5035561;28;20190;-69
2022/05/19 00:24:06;;;;;;;47.13;34.25;;;;;;;;;;5032906;28;20240;-69
2022/05/19 00:26:31;;;;;;;59.83;36.72;;;;;;;;;;5031993;28;20193;-69
2022/05/19 00:28:57;;;;;;;55.95;37.08;;;;;;;;;;5028551;28;20251;-69
2022/05/19 00:31:22;;;;;;;60.65;36.72;;;;;;;;;;5033913;28;20213;-70
2022/05/19 00:33:48;;;;;;;52.58;36.42;;;;;;;;;;5045187;28;20543;-69
2022/05/19 00:36:19;;;;;;;54.50;37.72;;;;;;;;;;5033937;28;20182;-69
2022/05/19 00:38:45;;;;;;;58.05;37.10;;;;;;;;;;5029699;28;20269;-69
2022/05/19 00:41:12;;;;;;;60.28;38.13;;;;;;;;;;5035762;28;20663;-70
2022/05/19 00:43:40;;;;;;;56.25;38.88;;;;;;;;;;5039327;28;20209;-70
2022/05/19 00:46:30;;;;;;;58.45;39.63;;;;;;;;;;5034122;28;20734;-69
2022/05/19 00:49:12;;;;;;;60.90;40.35;;;;;;;;;;5028897;28;20213;-69
2022/05/19 00:51:53;;;;;;;61.63;39.25;;;;;;;;;;5041832;28;20536;-69
2022/05/19 00:54:26;;;;;;;65.07;40.42;;;;;;;;;;5049079;28;20209;-69
2022/05/19 00:57:07;;;;;;;69.60;42.63;;;;;;;;;;5037704;28;20228;-70
2022/05/19 00:59:54;;;;;;;65.25;42.65;;;;;;;;;;5045677;28;20204;-70
2022/05/19 01:02:24;;;;;;;67.82;42.30;;;;;;;;;;5040308;28;20182;-69
2022/05/19 01:04:59;;;;;;;66.22;43.67;;;;;;;;;;5041411;28;20630;-69
2022/05/19 01:07:32;;;;;;;64.45;42.85;;;;;;;;;;5028029;28;20185;-70
2022/05/19 01:09:59;;;;;;;65.88;42.53;;;;;;;;;;5040128;28;20231;-69
2022/05/19 01:12:26;;;;;;;65.28;41.42;;;;;;;;;;5034298;28;20534;-70
2022/05/19 01:14:51;;;;;;;66.90;42.97;;;;;;;;;;5037356;28;20234;-69
2022/05/19 01:17:17;;;;;;;66.25;41.90;;;;;;;;;;5048963;28;20185;-70
2022/05/19 01:19:46;;;;;;;70.72;43.55;;;;;;;;;;5030331;28;20177;-69
2022/05/19 01:22:22;;;;;;;68.38;41.60;;;;;;;;;;5035365;28;20213;-69
2022/05/19 01:25:04;;;;;;;60.25;40.65;;;;;;;;;;5045300;28;20177;-69
2022/05/19 01:27:30;;;;;;;62.25;40.95;;;;;;;;;;5028996;28;20190;-70
2022/05/19 01:29:56;;;;;;;61.22;42.08;;;;;;;;;;5036842;28;20190;-69
2022/05/19 01:32:27;;;;;;;63.80;40.65;;;;;;;;;;5040631;28;20669;-69
2022/05/19 01:34:53;;;;;;;60.30;40.22;;;;;;;;;;5044793;28;20672;-69
2022/05/19 01:37:18;;;;;;;63.20;41.10;;;;;;;;;;5038040;28;20258;-69
2022/05/19 01:39:47;;;;;;;62.42;41.38;;;;;;;;;;5036570;28;20186;-70
2022/05/19 01:42:41;;;;;;;65.35;43.53;;;;;;;;;;5040763;28;20660;-69
2022/05/19 01:45:39;;;;;;;67.35;42.40;;;;;;;;;;5035464;28;20266;-69
2022/05/19 01:48:24;;;;;;;62.53;41.50;;;;;;;;;;5039804;28;20186;-70
2022/05/19 01:51:01;;;;;;;56.05;39.53;;;;;;;;;;5038151;28;20259;-69
2022/05/19 01:53:58;;;;;;;58.50;40.53;;;;;;;;;;5029541;28;20212;-69
2022/05/19 01:56:33;;;;;;;65.53;40.70;;;;;;;;;;5028425;28;20201;-70
2022/05/19 01:59:01;;;;;;;63.60;41.47;;;;;;;;;;5041729;28;20648;-69
2022/05/19 02:01:28;;;;;;;63.60;41.92;;;;;;;;;;5033513;28;20190;-69
2022/05/19 02:03:57;;;;;;;64.60;42.35;;;;;;;;;;5044531;28;20359;-70
2022/05/19 02:06:32;;;;;;;55.60;41.45;;;;;;;;;;5037750;28;20189;-69
2022/05/19 02:09:06;;;;;;;62.25;41.03;;;;;;;;;;5037633;28;20710;-69
2022/05/19 02:11:37;;;;;;;60.88;40.92;;;;;;;;;;5031419;28;20221;-70
2022/05/19 02:14:07;;;;;;;65.22;42.30;;;;;;;;;;5032629;28;20733;-69
2022/05/19 02:16:33;;;;;;;60.60;42.30;;;;;;;;;;5039112;28;20236;-69
2022/05/19 02:18:59;;;;;;;68.25;43.45;;;;;;;;;;5032900;28;20193;-69
2022/05/19 02:21:25;;;;;;;64.65;43.22;;;;;;;;;;5028006;28;20186;-69
2022/05/19 02:23:52;;;;;;;69.22;44.92;;;;;;;;;;5033676;28;20242;-70
2022/05/19 02:26:17;;;;;;;68.95;44.20;;;;;;;;;;5034785;28;20213;-69
2022/05/19 02:28:47;;;;;;;61.50;44.35;;;;;;;;;;5035001;28;20212;-69
2022/05/19 02:31:15;;;;;;;62.75;45.38;;;;;;;;;;5029253;28;20636;-69
2022/05/19 02:33:40;;;;;;;68.68;45.67;;;;;;;;;;5035983;28;20194;-69
2022/05/19 02:36:08;;;;;;;68.25;44.63;;;;;;;;;;5039987;28;20641;-70
2022/05/19 02:38:33;;;;;;;74.43;45.95;;;;;;;;;;5043032;28;20189;-70
2022/05/19 02:40:59;;;;;;;67.45;44.67;;;;;;;;;;5034533;28;20591;-70
2022/05/19 02:43:24;;;;;;;64.55;45.65;;;;;;;;;;5038130;28;20615;-70
2022/05/19 02:45:50;;;;;;;67.53;45.75;;;;;;;;;;5041309;28;20186;-69
2022/05/19 02:48:16;;;;;;;71.20;47.55;;;;;;;;;;5036399;28;20177;-70
2022/05/19 02:50:43;;;;;;;72.25;46.95;;;;;;;;;;5040711;28;20179;-70
2022/05/19 02:53:10;;;;;;;69.72;48.22;;;;;;;;;;5038772;28;20209;-69
2022/05/19 02:55:36;;;;;;;71.78;48.10;;;;;;;;;;5031101;28;20289;-69
2022/05/19 02:58:01;;;;;;;67.88;47.03;;;;;;;;;;5028144;28;20313;-69
2022/05/19 03:00:27;;;;;;;69.60;46.47;;;;;;;;;;5041808;28;20185;-70
2022/05/19 03:02:54;;;;;;;75.07;47.67;;;;;;;;;;5038174;28;20205;-69
2022/05/19 03:05:22;;;;;;;70.18;48.08;;;;;;;;;;5031068;28;20181;-69
2022/05/19 03:07:48;;;;;;;69.88;48.63;;;;;;;;;;5039637;28;20316;-70
2022/05/19 03:10:14;;;;;;;73.80;47.60;;;;;;;;;;5032992;28;20257;-70
2022/05/19 03:12:40;;;;;;;72.93;48.88;;;;;;;;;;5038618;28;20198;-69
2022/05/19 03:15:06;;;;;;;73.90;49.67;;;;;;;;;;5027469;28;20186;-69
2022/05/19 03:17:31;;;;;;;69.60;50.33;;;;;;;;;;5029244;28;20265;-69
2022/05/19 03:19:57;;;;;;;70.82;49.35;;;;;;;;;;5038669;28;20189;-69
2022/05/19 03:22:25;;;;;;;70.57;50.38;;;;;;;;;;5040387;28;20182;-69
2022/05/19 03:24:50;;;;;;;72.22;50.05;;;;;;;;;;5030716;28;20182;-70
2022/05/19 03:27:16;;;;;;;68.25;48.42;;;;;;;;;;5040966;28;20513;-70
2022/05/19 03:29:41;;;;;;;71.13;48.42;;;;;;;;;;5041338;28;20269;-69
2022/05/19 03:32:07;;;;;;;72.32;50.28;;;;;;;;;;5031360;28;20213;-69
2022/05/19 03:34:32;;;;;;;64.75;47.50;;;;;;;;;;5030191;28;20213;-70
2022/05/19 03:37:02;;;;;;;69.80;48.15;;;;;;;;;;5030713;28;20645;-70
2022/05/19 03:39:28;;;;;;;71.78;48.22;;;;;;;;;;5039497;28;20211;-70
2022/05/19 03:41:53;;;;;;;61.53;45.50;;;;;;;;;;5035552;28;20262;-70
2022/05/19 03:44:18;;;;;;;66.32;46.83;;;;;;;;;;5032057;28;20232;-69
2022/05/19 03:46:43;;;;;;;58.53;43.65;;;;;;;;;;5029239;28;20247;-69
2022/05/19 03:49:09;;;;;;;61.33;44.72;;;;;;;;;;5029936;28;20262;-70
2022/05/19 03:51:36;;;;;;;63.67;43.75;;;;;;;;;;5034528;28;20276;-70
2022/05/19 03:54:01;;;;;;;59.13;43.42;;;;;;;;;;5037154;28;20246;-70
2022/05/19 03:56:26;;;;;;;54.38;42.35;;;;;;;;;;5037550;28;20213;-70
2022/05/19 03:58:52;;;;;;;60.60;42.72;;;;;;;;;;5031533;28;20182;-70
2022/05/19 04:01:20;;;;;;;57.92;42.33;;;;;;;;;;5032927;28;20178;-70
2022/05/19 04:03:46;;;;;;;56.75;42.40;;;;;;;;;;5037774;28;20180;-70
2022/05/19 04:06:11;;;;;;;55.85;41.92;;;;;;;;;;5032308;28;20658;-70
2022/05/19 04:08:37;;;;;;;59.03;41.58;;;;;;;;;;5031791;28;20189;-70
2022/05/19 04:11:03;;;;;;;56.97;40.80;;;;;;;;;;5029239;28;20690;-70
2022/05/19 04:13:29;;;;;;;57.25;40.55;;;;;;;;;;5032560;28;20206;-70
2022/05/19 04:15:54;;;;;;;50.17;38.40;;;;;;;;;;5034459;28;20196;-70
2022/05/19 04:18:19;;;;;;;51.75;36.63;;;;;;;;;;5032486;28;20182;-70
2022/05/19 04:20:45;;;;;;;47.72;36.70;;;;;;;;;;5040746;28;20523;-70
2022/05/19 04:23:13;;;;;;;46.15;34.65;;;;;;;;;;5029558;28;20604;-70
2022/05/19 04:25:39;;;;;;;45.90;35.17;;;;;;;;;;5034511;28;20197;-70
2022/05/19 04:28:05;;;;;;;44.75;32.30;;;;;;;;;;5038416;28;20619;-70
2022/05/19 04:30:31;;;;;;;39.22;29.92;;;;;;;;;;5042480;28;20186;-70
2022/05/19 04:32:56;;;;;;;34.63;27.38;;;;;;;;;;5032913;28;20201;-70
2022/05/19 04:35:22;;;;;;;34.75;24.05;;;;;;;;;;5035654;28;20212;-69
2022/05/19 04:37:48;;;;;;;26.63;19.45;;;;;;;;;;5040010;28;20265;-68
2022/05/19 04:40:15;;;;;;;25.65;17.23;;;;;;;;;;5030869;28;20235;-68
2022/05/19 04:42:42;;;;;;;21.67;15.55;;;;;;;;;;5039929;28;20646;-68
2022/05/19 04:45:09;;;;;;;23.17;16.38;;;;;;;;;;5034100;28;20557;-66
2022/05/19 04:47:34;;;;;;;21.17;16.17;;;;;;;;;;5037899;28;20549;-66
2022/05/19 04:50:00;;;;;;;23.67;16.27;;;;;;;;;;5033487;28;20276;-70
2022/05/19 04:52:26;;;;;;;18.60;14.98;;;;;;;;;;5028802;28;20553;-66
2022/05/19 04:54:51;;;;;;;18.92;14.90;;;;;;;;;;5028623;28;20265;-67
2022/05/19 04:57:17;;;;;;;20.30;14.52;;;;;;;;;;5030189;28;20216;-66
2022/05/19 04:59:42;;;;;;;20.48;14.90;;;;;;;;;;5030908;28;20190;-66
2022/05/19 05:02:10;;;;;;;16.05;13.38;;;;;;;;;;5038213;28;20665;-66
2022/05/19 05:04:35;;;;;;;18.45;13.40;;;;;;;;;;5034251;28;20169;-67
2022/05/19 05:07:01;;;;;;;18.50;12.63;;;;;;;;;;5036824;28;20209;-66
2022/05/19 05:09:26;;;;;;;17.92;13.07;;;;;;;;;;5045234;28;20187;-66
2022/05/19 05:11:52;;;;;;;15.30;11.88;;;;;;;;;;5045671;28;20237;-66
2022/05/19 05:14:18;;;;;;;16.83;12.05;;;;;;;;;;5039613;28;20865;-66
2022/05/19 05:16:47;;;;;;;14.52;12.10;;;;;;;;;;5029605;28;20178;-67
2022/05/19 05:19:13;;;;;;;16.63;11.02;;;;;;;;;;5039063;28;20272;-67
2022/05/19 05:21:38;;;;;;;14.52;9.80;;;;;;;;;;5027689;28;20642;-67
2022/05/19 05:24:04;;;;;;;14.23;9.88;;;;;;;;;;5031261;28;20178;-67
2022/05/19 05:26:30;;;;;;;13.73;9.90;;;;;;;;;;5031995;28;20178;-67
2022/05/19 05:28:55;;;;;;;12.23;9.82;;;;;;;;;;5033047;28;20181;-67
2022/05/19 05:31:21;;;;;;;12.40;9.68;;;;;;;;;;4333354;28;10000833;-67
2022/05/19 05:33:46;;;;;;;15.65;9.80;;;;;;;;;;5027408;28;20209;-66
2022/05/19 05:36:11;;;;;;;13.57;9.82;;;;;;;;;;5029696;28;20709;-66
2022/05/19 05:38:37;;;;;;;13.57;8.77;;;;;;;;;;5035113;28;20748;-67
2022/05/19 05:41:03;;;;;;;11.57;8.98;;;;;;;;;;5032154;28;20685;-67
2022/05/19 05:43:30;;;;;;;10.02;8.85;;;;;;;;;;5033298;28;20186;-67
2022/05/19 05:46:04;;;;;;;13.48;9.18;;;;;;;;;;5036977;28;20642;-67
2022/05/19 05:48:29;;;;;;;13.65;8.80;;;;;;;;;;5036666;28;20185;-67
2022/05/19 05:50:55;;;;;;;12.88;9.10;;;;;;;;;;5035021;28;20232;-67
2022/05/19 05:53:20;;;;;;;10.65;8.48;;;;;;;;;;5036817;28;20221;-67
2022/05/19 05:55:45;;;;;;;14.25;8.75;;;;;;;;;;5042599;28;20200;-67
2022/05/19 05:58:11;;;;;;;13.38;8.52;;;;;;;;;;5034744;28;20605;-67
2022/05/19 06:00:38;;;;;;;12.60;9.02;;;;;;;;;;5036340;28;20182;-68
2022/05/19 06:03:04;;;;;;;10.73;8.82;;;;;;;;;;5033482;28;20182;-68
2022/05/19 06:05:29;;;;;;;12.73;8.27;;;;;;;;;;5026871;28;20280;-68
2022/05/19 06:07:54;;;;;;;12.35;9.00;;;;;;;;;;5037084;28;20265;-68
2022/05/19 06:10:20;;;;;;;14.88;8.10;;;;;;;;;;5030957;28;20425;-67
2022/05/19 06:12:45;;;;;;;11.10;8.07;;;;;;;;;;5033686;28;20208;-67
2022/05/19 06:15:13;;;;;;;10.02;7.75;;;;;;;;;;5031190;28;20186;-67
2022/05/19 06:17:39;;;;;;;10.48;7.60;;;;;;;;;;5026823;28;20185;-67
2022/05/19 06:20:07;;;;;;;10.88;6.07;;;;;;;;;;5030898;28;20202;-68
2022/05/19 06:22:32;;;;;;;10.90;6.60;;;;;;;;;;5034240;28;20236;-67
2022/05/19 06:24:58;;;;;;;9.98;6.22;;;;;;;;;;5028592;28;20177;-67
2022/05/19 06:27:23;;;;;;;9.43;5.68;;;;;;;;;;5024651;28;20194;-67
2022/05/19 06:29:48;;;;;;;8.82;5.60;;;;;;;;;;5027823;28;20197;-67
2022/05/19 06:32:14;;;;;;;7.20;4.95;;;;;;;;;;5028493;28;20277;-67
2022/05/19 06:34:39;;;;;;;7.38;5.10;;;;;;;;;;5033225;28;20251;-68
2022/05/19 06:37:04;;;;;;;7.10;4.75;;;;;;;;;;5039573;28;20613;-68
2022/05/19 06:39:30;;;;;;;6.35;4.60;;;;;;;;;;5033880;28;20184;-68
2022/05/19 06:42:01;;;;;;;5.13;4.25;;;;;;;;;;5027701;28;20186;-67
2022/05/19 06:44:32;;;;;;;7.15;4.85;;;;;;;;;;5030937;28;20657;-68
2022/05/19 06:46:57;;;;;;;5.10;4.28;;;;;;;;;;5031297;28;20208;-67
2022/05/19 06:49:23;;;;;;;7.30;4.70;;;;;;;;;;5026975;28;20661;-67
2022/05/19 06:51:49;;;;;;;6.75;4.47;;;;;;;;;;5031746;28;20189;-67
2022/05/19 06:54:14;;;;;;;7.72;4.07;;;;;;;;;;5032939;28;20268;-68
2022/05/19 06:56:39;;;;;;;9.55;4.05;;;;;;;;;;5027573;28;20666;-67
2022/05/19 06:59:05;;;;;;;5.32;3.80;;;;;;;;;;5032321;28;20182;-67
2022/05/19 07:01:31;;;;;;;5.50;2.97;;;;;;;;;;5030589;28;20177;-67
2022/05/19 07:03:56;;;;;;;5.28;2.75;;;;;;;;;;5034763;28;20182;-68
2022/05/19 07:06:22;;;;;;;4.82;4.07;;;;;;;;;;5030088;28;20177;-68
2022/05/19 07:08:47;;;;;;;4.53;3.67;;;;;;;;;;5028794;28;20272;-68
2022/05/19 07:11:25;;;;;;;8.13;3.88;;;;;;;;;;5028260;28;20245;-68
2022/05/19 07:13:56;;;;;;;5.25;3.35;;;;;;;;;;5034056;28;20288;-68
2022/05/19 07:16:22;;;;;;;5.80;3.30;;;;;;;;;;5030139;28;20182;-68
2022/05/19 07:18:47;;;;;;;3.63;3.08;;;;;;;;;;5029424;28;20174;-68
2022/05/19 07:21:14;;;;;;;4.15;2.75;;;;;;;;;;5033314;28;20190;-68
2022/05/19 07:23:40;;;;;;;3.72;3.15;;;;;;;;;;5036129;28;20715;-68
2022/05/19 07:26:06;;;;;;;3.90;3.15;;;;;;;;;;5032322;28;20190;-68
2022/05/19 07:28:31;;;;;;;4.40;3.20;;;;;;;;;;5034630;28;20280;-67
2022/05/19 07:30:57;;;;;;;3.50;3.20;;;;;;;;;;5033386;28;20292;-67
2022/05/19 07:33:22;;;;;;;4.82;3.50;;;;;;;;;;5039572;28;20209;-67
2022/05/19 07:35:49;;;;;;;5.03;3.58;;;;;;;;;;5030882;28;20220;-68
2022/05/19 07:38:15;;;;;;;4.35;3.10;;;;;;;;;;5039265;28;20579;-68
2022/05/19 07:40:41;;;;;;;5.55;3.17;;;;;;;;;;5038484;28;20213;-68
2022/05/19 07:45:51;;;;;;;4.43;3.15;;;;;;;;;;5030579;28;20213;-68
2022/05/19 07:48:16;;;;;;;4.40;3.00;;;;;;;;;;5029748;28;20194;-69
2022/05/19 07:50:42;;;;;;;5.38;3.47;;;;;;;;;;5036368;28;20192;-70
2022/05/19 07:53:07;;;;;;;6.10;3.10;;;;;;;;;;5032085;28;20202;-69
2022/05/19 07:55:33;;;;;;;7.35;3.30;;;;;;;;;;5036329;28;20658;-69
2022/05/19 07:57:58;;;;;;;6.28;3.22;;;;;;;;;;5033103;28;20677;-69
2022/05/19 08:00:24;;;;;;;4.10;2.63;;;;;;;;;;5031011;28;20252;-69
2022/05/19 08:02:49;;;;;;;4.78;2.85;;;;;;;;;;5031289;28;20236;-69
2022/05/19 08:05:15;;;;;;;4.07;2.95;;;;;;;;;;5035409;28;20213;-69
2022/05/19 08:07:40;;;;;;;4.10;2.80;;;;;;;;;;5043226;28;20320;-69
2022/05/19 08:10:23;;;;;;;3.30;2.92;;;;;;;;;;5034636;28;20182;-68
2022/05/19 08:15:40;;;;;;;7.18;3.30;;;;;;;;;;5044006;28;20227;-69
2022/05/19 08:18:13;;;;;;;7.63;3.58;;;;;;;;;;5047537;28;20196;-69
2022/05/19 08:20:46;;;;;;;5.68;3.88;;;;;;;;;;5033944;28;20549;-69
2022/05/19 08:23:17;;;;;;;7.43;3.92;;;;;;;;;;5029137;28;20267;-69
2022/05/19 08:25:43;;;;;;;4.95;3.45;;;;;;;;;;5043820;28;20624;-69
2022/05/19 08:28:09;;;;;;;7.20;3.67;;;;;;;;;;5039227;28;20181;-69
2022/05/19 08:30:34;;;;;;;6.40;4.35;;;;;;;;;;5036929;28;20192;-70
2022/05/19 08:33:00;;;;;;;5.57;3.80;;;;;;;;;;5033388;28;20199;-69
2022/05/19 08:35:25;;;;;;;5.90;4.38;;;;;;;;;;5031281;28;20174;-69
2022/05/19 08:37:51;;;;;;;6.07;4.30;;;;;;;;;;5038042;28;20309;-69
2022/05/19 08:40:18;;;;;;;5.32;4.32;;;;;;;;;;5032471;28;20596;-70
2022/05/19 08:42:48;;;;;;;7.78;4.43;;;;;;;;;;5033672;28;20185;-69
2022/05/19 08:45:21;;;;;;;5.43;3.80;;;;;;;;;;5031660;28;20178;-69
2022/05/19 08:47:59;;;;;;;5.25;4.28;;;;;;;;;;5031226;28;20525;-71
2022/05/19 08:50:38;;;;;;;5.68;4.25;;;;;;;;;;5035854;28;20186;-69
2022/05/19 08:53:07;;;;;;;11.02;4.00;;;;;;;;;;5040885;28;20201;-69
2022/05/19 08:55:32;;;;;;;6.97;4.28;;;;;;;;;;5040642;28;20203;-70
2022/05/19 08:58:13;;;;;;;5.63;3.83;;;;;;;;;;5031313;28;20179;-70
2022/05/19 09:00:43;;;;;;;10.27;4.82;;;;;;;;;;5032602;28;20257;-69
2022/05/19 09:03:42;;;;;;;7.00;4.47;;;;;;;;;;5030774;28;20182;-70
2022/05/19 09:07:56;;;;;;;6.97;4.18;;;;;;;;;;5028765;28;20186;-69
2022/05/19 09:09:57;;;;;;;7.07;5.63;;;;;;;;;;5031144;28;20193;-69
2022/05/19 09:12:23;;;;;;;7.30;5.03;;;;;;;;;;5032029;28;20226;-70
2022/05/19 09:14:49;;;;;;;7.10;5.20;;;;;;;;;;5032628;28;20190;-70
2022/05/19 09:17:16;;;;;;;7.40;5.55;;;;;;;;;;5038023;28;20194;-70
2022/05/19 09:20:04;;;;;;;11.50;5.70;;;;;;;;;;5044560;28;20177;-70
2022/05/19 09:22:33;;;;;;;5.65;4.82;;;;;;;;;;5033255;28;20189;-69
2022/05/19 09:25:03;;;;;;;7.47;5.18;;;;;;;;;;5047528;28;20177;-70
2022/05/19 09:27:29;;;;;;;6.85;5.30;;;;;;;;;;5036467;28;20512;-69
2022/05/19 09:29:58;;;;;;;5.60;4.72;;;;;;;;;;5035178;28;20184;-69
2022/05/19 09:32:45;;;;;;;7.70;5.45;;;;;;;;;;5044225;28;20535;-68
2022/05/19 09:35:13;;;;;;;7.13;5.88;;;;;;;;;;5039794;28;20189;-69
2022/05/19 09:37:44;;;;;;;10.88;6.47;;;;;;;;;;5043080;28;20211;-69
2022/05/19 09:40:12;;;;;;;9.32;6.40;;;;;;;;;;5041863;28;20326;-71
2022/05/19 09:43:03;;;;;;;7.03;5.88;;;;;;;;;;5042066;28;20182;-70
2022/05/19 09:45:29;;;;;;;8.18;6.05;;;;;;;;;;5045318;28;20186;-69
2022/05/19 09:48:03;;;;;;;6.90;5.57;;;;;;;;;;5033162;28;20505;-70
2022/05/19 09:50:32;;;;;;;7.00;6.30;;;;;;;;;;5030372;28;20197;-69
2022/05/19 09:53:03;;;;;;;6.93;5.78;;;;;;;;;;5036547;28;20255;-70
2022/05/19 09:55:28;;;;;;;9.38;5.40;;;;;;;;;;5042537;28;20186;-69
2022/05/19 09:57:57;;;;;;;7.53;4.97;;;;;;;;;;5039886;28;20663;-69
2022/05/19 10:00:25;;;;;;;9.98;5.28;;;;;;;;;;5041754;28;20182;-70
2022/05/19 10:02:55;;;;;;;6.53;4.65;;;;;;;;;;5040537;28;20182;-71
2022/05/19 10:05:29;;;;;;;7.18;4.80;;;;;;;;;;5041580;28;20234;-73
2022/05/19 10:07:58;;;;;;;6.47;4.32;;;;;;;;;;5035948;28;20177;-69
2022/05/19 10:10:29;;;;;;;5.93;4.15;;;;;;;;;;5033317;28;20272;-70
2022/05/19 10:13:02;;;;;;;5.85;4.65;;;;;;;;;;5044967;28;20224;-69
2022/05/19 10:15:59;;;;;;;5.72;4.70;;;;;;;;;;5032814;28;20179;-70
2022/05/19 10:18:46;;;;;;;12.43;4.90;;;;;;;;;;5025272;28;20275;-71
2022/05/19 10:21:42;;;;;;;5.78;5.18;;;;;;;;;;5037480;28;20252;-70
2022/05/19 10:24:31;;;;;;;6.97;5.18;;;;;;;;;;5032501;28;20704;-70
2022/05/19 10:33:39;;;;;;;5.20;3.65;;;;;;;;;;5034854;28;20255;-68
2022/05/19 10:36:28;;;;;;;5.10;3.83;;;;;;;;;;5030195;28;20841;-67
2022/05/19 10:39:03;;;;;;;6.65;3.45;;;;;;;;;;5032523;28;20820;-67
2022/05/19 10:41:45;;;;;;;8.02;4.07;;;;;;;;;;5030253;28;20180;-68
2022/05/19 10:44:25;;;;;;;4.90;3.95;;;;;;;;;;5030233;28;20197;-69
2022/05/19 10:47:00;;;;;;;5.30;3.80;;;;;;;;;;5032931;28;20182;-70
2022/05/19 10:49:46;;;;;;;4.78;3.40;;;;;;;;;;5030603;28;20189;-68
2022/05/19 10:52:38;;;;;;;3.97;3.50;;;;;;;;;;5036868;28;20170;-68
2022/05/19 10:55:15;;;;;;;5.72;3.58;;;;;;;;;;5030597;28;20196;-70
2022/05/19 10:57:58;;;;;;;7.43;3.67;;;;;;;;;;5040367;28;20268;-68
2022/05/19 11:00:50;;;;;;;4.47;3.58;;;;;;;;;;5046428;28;20181;-69
2022/05/19 11:03:39;;;;;;;5.88;3.50;;;;;;;;;;5049991;28;20185;-68
2022/05/19 11:06:26;;;;;;;4.55;3.38;;;;;;;;;;5039578;28;20622;-68
2022/05/19 11:08:59;;;;;;;3.45;2.72;;;;;;;;;;5049222;28;20652;-69
2022/05/19 11:11:55;;;;;;;5.22;3.20;;;;;;;;;;5046303;28;20283;-76
2022/05/19 11:14:56;;;;;;;3.97;3.35;;;;;;;;;;5045347;28;20245;-67
2022/05/19 11:18:09;;;;;;;4.15;3.75;;;;;;;;;;5035558;28;20268;-69
2022/05/19 11:20:54;;;;;;;6.32;3.35;;;;;;;;;;5011987;28;20244;-67
2022/05/19 11:23:25;;;;;;;4.72;3.00;;;;;;;;;;5029473;28;20174;-67
2022/05/19 11:26:23;;;;;;;4.93;2.88;;;;;;;;;;5023926;28;20526;-67
2022/05/19 11:29:23;;;;;;;4.40;3.17;;;;;;;;;;5034133;28;20190;-67
2022/05/19 11:32:06;;;;;;;8.35;3.05;;;;;;;;;;5031157;28;20198;-67
2022/05/19 11:34:59;;;;;;;4.05;2.63;;;;;;;;;;5045399;28;20264;-68
2022/05/19 11:38:00;;;;;;;4.50;3.67;;;;;;;;;;5051452;28;20667;-68
2022/05/19 11:40:30;;;;;;;3.92;3.53;;;;;;;;;;5038604;28;20190;-69
2022/05/19 11:43:24;;;;;;;4.63;3.28;;;;;;;;;;5039785;28;20188;-68
2022/05/19 11:45:52;;;;;;;5.28;3.17;;;;;;;;;;5032382;28;20208;-68
2022/05/19 11:57:19;;;;;;;5.47;3.58;;;;;;;;;;5039989;28;20271;-69
2022/05/19 11:59:50;;;;;;;4.93;3.78;;;;;;;;;;5032545;28;20178;-71
2022/05/19 12:02:22;;;;;;;6.53;3.67;;;;;;;;;;5036501;28;20183;-67
2022/05/19 12:04:52;;;;;;;4.28;3.13;;;;;;;;;;5034356;28;20178;-67
2022/05/19 12:07:35;;;;;;;5.63;2.85;;;;;;;;;;5032465;28;20170;-67
2022/05/19 12:10:01;;;;;;;4.43;3.15;;;;;;;;;;5034272;28;20276;-69
2022/05/19 12:12:31;;;;;;;4.65;2.90;;;;;;;;;;5039556;28;20819;-68
2022/05/19 12:15:23;;;;;;;7.05;2.85;;;;;;;;;;5029968;28;20186;-68
2022/05/19 12:18:01;;;;;;;4.78;2.97;;;;;;;;;;5035182;28;20252;-68
2022/05/19 12:20:50;;;;;;;3.33;2.60;;;;;;;;;;5030223;28;20181;-67
2022/05/19 12:23:24;;;;;;;3.00;2.60;;;;;;;;;;5029491;28;20536;-68
2022/05/19 12:25:55;;;;;;;3.13;2.78;;;;;;;;;;5033834;28;20185;-68
2022/05/19 12:28:29;;;;;;;4.80;2.90;;;;;;;;;;5032132;28;20189;-68
2022/05/19 12:34:00;;;;;;;3.45;2.60;;;;;;;;;;5029559;28;20288;-68
2022/05/19 12:36:44;;;;;;;4.78;3.00;;;;;;;;;;5030367;28;20232;-68
2022/05/19 12:39:15;;;;;;;4.75;3.40;;;;;;;;;;5036915;28;20242;-68
2022/05/19 12:41:50;;;;;;;4.28;2.60;;;;;;;;;;5040664;28;20861;-68
2022/05/19 12:44:44;;;;;;;5.60;2.90;;;;;;;;;;5036568;28;20176;-68
2022/05/19 12:47:15;;;;;;;10.80;3.58;;;;;;;;;;5038128;28;20185;-70
2022/05/19 12:50:00;;;;;;;7.88;3.95;;;;;;;;;;4337477;28;10000828;-71
2022/05/19 12:53:05;;;;;;;6.03;3.60;;;;;;;;;;5046084;28;20193;-71
2022/05/19 12:55:36;;;;;;;8.88;4.80;;;;;;;;;;5028212;28;20201;-71
2022/05/19 12:58:39;;;;;;;8.63;4.90;;;;;;;;;;5038343;28;20632;-71
2022/05/19 13:01:43;;;;;;;7.65;4.95;;;;;;;;;;5031636;28;20231;-71
2022/05/19 13:04:37;;;;;;;8.77;5.32;;;;;;;;;;5037075;28;20173;-72
2022/05/19 13:07:07;;;;;;;6.93;5.20;;;;;;;;;;5036278;28;20259;-72
2022/05/19 13:09:34;;;;;;;9.60;5.15;;;;;;;;;;5033847;28;20277;-71
2022/05/19 13:12:15;;;;;;;8.75;4.63;;;;;;;;;;5045066;28;20228;-72
2022/05/19 13:14:46;;;;;;;8.60;5.22;;;;;;;;;;5030361;28;20228;-71
2022/05/19 13:17:43;;;;;;;9.68;6.00;;;;;;;;;;5040934;28;20182;-72
2022/05/19 13:20:22;;;;;;;10.73;6.87;;;;;;;;;;4684185;28;10000972;-72
2022/05/19 13:23:00;;;;;;;12.88;7.35;;;;;;;;;;5036008;28;20296;-76
2022/05/19 13:25:27;;;;;;;11.63;7.38;;;;;;;;;;5038466;28;20208;-72
2022/05/19 13:31:05;;;;;;;18.13;5.15;;;;;;;;;;5040756;28;20243;-73
2022/05/19 13:33:37;;;;;;;11.55;2.88;;;;;;;;;;5033399;28;20602;-78
2022/05/19 13:36:10;;;;;;;5.60;2.55;;;;;;;;;;5041873;28;20637;-72
2022/05/19 13:38:35;;;;;;;5.95;2.88;;;;;;;;;;5036725;28;20186;-72
2022/05/19 13:41:03;;;;;;;7.60;3.45;;;;;;;;;;5032685;28;20182;-73
2022/05/19 13:43:35;;;;;;;6.30;3.63;;;;;;;;;;5032388;28;20170;-75
2022/05/19 13:46:05;;;;;;;6.28;3.92;;;;;;;;;;5032531;28;20640;-71
2022/05/19 13:48:52;;;;;;;11.38;4.10;;;;;;;;;;5036831;28;20182;-71
2022/05/19 13:51:21;;;;;;;7.78;3.92;;;;;;;;;;5038185;28;20199;-70
2022/05/19 13:53:58;;;;;;;6.00;3.90;;;;;;;;;;5035919;28;20621;-70
2022/05/19 13:56:46;;;;;;;5.47;3.92;;;;;;;;;;5033350;28;20408;-70
2022/05/19 13:59:17;;;;;;;4.97;3.70;;;;;;;;;;5045110;28;20552;-71
2022/05/19 14:01:45;;;;;;;9.55;4.22;;;;;;;;;;5039131;28;20173;-71
2022/05/19 14:04:15;;;;;;;10.82;4.25;;;;;;;;;;5041388;28;20181;-71
2022/05/19 14:06:40;;;;;;;6.75;4.47;;;;;;;;;;5034635;28;20200;-71
2022/05/19 14:09:20;;;;;;;8.20;3.75;;;;;;;;;;5036476;28;20186;-70
2022/05/19 14:11:45;;;;;;;6.60;3.67;;;;;;;;;;5032652;28;20304;-70
2022/05/19 14:14:21;;;;;;;8.90;3.78;;;;;;;;;;5032426;28;20670;-69
2022/05/19 14:16:46;;;;;;;7.03;4.40;;;;;;;;;;5037912;28;20263;-70
2022/05/19 14:19:31;;;;;;;5.75;4.60;;;;;;;;;;5033119;28;20277;-70
2022/05/19 14:21:57;;;;;;;8.32;4.50;;;;;;;;;;5039177;28;20208;-70
2022/05/19 14:24:22;;;;;;;4.75;4.20;;;;;;;;;;5031178;28;20174;-68
2022/05/19 14:26:52;;;;;;;10.30;4.63;;;;;;;;;;5041745;28;20278;-67
2022/05/19 14:29:22;;;;;;;5.18;3.70;;;;;;;;;;5040260;28;20189;-67
2022/05/19 14:31:50;;;;;;;7.63;5.07;;;;;;;;;;5040856;28;20212;-66
2022/05/19 14:34:36;;;;;;;8.27;5.43;;;;;;;;;;5034106;28;20205;-66
2022/05/19 14:37:13;;;;;;;7.45;6.18;;;;;;;;;;5031095;28;20193;-70
2022/05/19 14:43:04;;;;;;;8.65;5.60;;;;;;;;;;5033317;28;20225;-70
2022/05/19 14:43:05;;;;;;;7.38;5.50;;;;;;;;;;5037386;28;20227;-70
2022/05/19 14:45:34;;;;;;;9.02;5.95;;;;;;;;;;5039662;28;20184;-68
2022/05/19 14:47:59;;;;;;;6.90;6.20;;;;;;;;;;5035381;28;20196;-67
2022/05/19 14:50:32;;;;;;;6.85;6.10;;;;;;;;;;5038923;28;20185;-68
2022/05/19 14:53:09;;;;;;;8.30;5.60;;;;;;;;;;5035497;28;20220;-67
2022/05/19 14:55:41;;;;;;;7.03;5.00;;;;;;;;;;5038970;28;20181;-66
2022/05/19 14:58:17;;;;;;;5.75;4.00;;;;;;;;;;5037712;28;20513;-66
2022/05/19 15:00:43;;;;;;;5.95;3.97;;;;;;;;;;5034012;28;20268;-66
2022/05/19 15:03:09;;;;;;;6.13;3.45;;;;;;;;;;5035481;28;20220;-66
2022/05/19 15:05:35;;;;;;;4.35;3.17;;;;;;;;;;5037785;28;20579;-66
2022/05/19 15:08:06;;;;;;;4.95;3.40;;;;;;;;;;5030845;28;20218;-66
2022/05/19 15:10:32;;;;;;;8.18;3.72;;;;;;;;;;5034806;28;20656;-66
2022/05/19 15:12:59;;;;;;;4.00;3.08;;;;;;;;;;5037266;28;20240;-66
2022/05/19 15:15:26;;;;;;;5.30;3.53;;;;;;;;;;5034410;28;20193;-66
2022/05/19 15:17:52;;;;;;;5.72;3.30;;;;;;;;;;5030394;28;20186;-66
2022/05/19 15:20:19;;;;;;;5.88;3.30;;;;;;;;;;5032388;28;20281;-66
2022/05/19 15:22:45;;;;;;;8.70;3.45;;;;;;;;;;5036017;28;20185;-67
2022/05/19 15:25:11;;;;;;;7.20;3.40;;;;;;;;;;5032887;28;20276;-67